createdAt,value
2023-03-17T00:00:38.400Z,2.80
2023-03-17T00:03:06.754Z,2.60
2023-03-17T00:05:35.581Z,2.50
2023-03-17T00:08:05.416Z,2.40
2023-03-17T00:10:33.302Z,2.40
2023-03-17T00:13:02.510Z,2.50
2023-03-17T00:15:30.636Z,2.40
2023-03-17T00:17:58.469Z,2.40
2023-03-17T00:20:27.812Z,2.50
2023-03-17T00:22:57.465Z,2.50
2023-03-17T00:25:27.284Z,2.20
2023-03-17T00:27:55.248Z,2.20
2023-03-17T00:30:24.567Z,2.10
2023-03-17T00:32:53.074Z,2.10
2023-03-17T00:35:23.028Z,2.10
2023-03-17T00:37:52.354Z,2.10
2023-03-17T00:40:22.146Z,2.10
2023-03-17T00:42:50.914Z,2.10
2023-03-17T00:45:19.034Z,2.40
2023-03-17T00:47:48.219Z,2.30
2023-03-17T00:50:17.356Z,2.20
2023-03-17T00:52:45.629Z,2.10
2023-03-17T00:55:14.291Z,2.00
2023-03-17T00:57:42.898Z,2.50
2023-03-17T01:00:19.987Z,2.10
2023-03-17T01:02:49.184Z,2.50
2023-03-17T01:05:17.186Z,2.00
2023-03-17T01:07:47.923Z,2.00
2023-03-17T01:10:17.195Z,1.80
2023-03-17T01:12:45.518Z,1.80
2023-03-17T01:15:13.762Z,1.70
2023-03-17T01:17:41.803Z,1.70
2023-03-17T01:20:15.918Z,1.70
2023-03-17T01:22:43.877Z,1.60
2023-03-17T01:25:12.090Z,1.40
2023-03-17T01:27:40.556Z,1.40
2023-03-17T01:30:10.328Z,1.50
2023-03-17T01:32:38.160Z,1.50
2023-03-17T01:35:06.768Z,1.40
2023-03-17T01:37:36.423Z,1.40
2023-03-17T01:40:04.409Z,1.40
2023-03-17T01:42:32.495Z,1.40
2023-03-17T01:45:01.485Z,1.40
2023-03-17T01:47:30.375Z,1.30
2023-03-17T01:50:00.522Z,1.30
2023-03-17T01:52:28.871Z,1.40
2023-03-17T01:55:00.575Z,1.40
2023-03-17T01:57:31.424Z,1.40
2023-03-17T02:00:00.904Z,1.50
2023-03-17T02:02:30.828Z,1.50
2023-03-17T02:04:58.867Z,1.40
2023-03-17T02:07:27.562Z,1.50
2023-03-17T02:09:55.528Z,1.50
2023-03-17T02:12:24.907Z,1.50
2023-03-17T02:14:52.849Z,1.50
2023-03-17T02:17:21.195Z,1.40
2023-03-17T02:19:49.138Z,1.40
2023-03-17T02:22:18.355Z,1.40
2023-03-17T02:24:47.643Z,1.40
2023-03-17T02:27:18.302Z,1.50
2023-03-17T02:29:47.203Z,1.40
2023-03-17T02:32:15.404Z,1.50
2023-03-17T02:34:43.290Z,1.50
2023-03-17T02:37:11.459Z,1.40
2023-03-17T02:39:40.877Z,1.20
2023-03-17T02:42:09.053Z,1.20
2023-03-17T02:44:36.878Z,1.20
2023-03-17T02:47:04.718Z,1.10
2023-03-17T02:49:32.795Z,1.20
2023-03-17T02:52:01.477Z,1.20
2023-03-17T02:54:29.265Z,1.10
2023-03-17T02:56:58.449Z,1.00
2023-03-17T02:59:26.309Z,1.00
2023-03-17T03:01:54.655Z,1.20
2023-03-17T03:04:22.447Z,1.10
2023-03-17T03:06:50.246Z,0.90
2023-03-17T03:09:18.747Z,1.00
2023-03-17T03:11:46.639Z,0.80
2023-03-17T03:14:15.886Z,0.90
2023-03-17T03:16:44.330Z,0.90
2023-03-17T03:19:12.247Z,0.90
2023-03-17T03:21:40.044Z,1.00
2023-03-17T03:24:08.581Z,0.80
2023-03-17T03:26:37.000Z,1.00
2023-03-17T03:29:05.315Z,1.10
2023-03-17T03:31:34.467Z,1.00
2023-03-17T03:34:02.259Z,1.20
2023-03-17T03:36:30.057Z,1.20
2023-03-17T03:38:57.941Z,1.20
2023-03-17T03:41:26.237Z,1.20
2023-03-17T03:43:54.017Z,1.20
2023-03-17T03:46:21.872Z,1.20
2023-03-17T03:48:51.013Z,1.10
2023-03-17T03:51:18.791Z,1.30
2023-03-17T03:53:48.203Z,1.10
2023-03-17T03:56:16.079Z,1.40
2023-03-17T03:58:44.001Z,1.40
2023-03-17T04:01:11.909Z,1.20
2023-03-17T04:03:39.703Z,1.30
2023-03-17T04:06:09.060Z,1.50
2023-03-17T04:08:37.547Z,1.40
2023-03-17T04:11:05.601Z,1.40
2023-03-17T04:13:33.377Z,1.50
2023-03-17T04:16:01.395Z,1.50
2023-03-17T04:18:29.231Z,1.40
2023-03-17T04:20:57.148Z,1.40
2023-03-17T04:23:26.342Z,1.40
2023-03-17T04:25:54.176Z,1.50
2023-03-17T04:28:22.435Z,1.40
2023-03-17T04:30:50.577Z,1.50
2023-03-17T04:33:20.221Z,1.40
2023-03-17T04:35:48.126Z,1.30
2023-03-17T04:38:16.321Z,1.10
2023-03-17T04:40:45.467Z,1.30
2023-03-17T04:43:13.260Z,1.30
2023-03-17T04:45:41.137Z,1.40
2023-03-17T04:48:08.956Z,1.40
2023-03-17T04:50:36.750Z,1.40
2023-03-17T04:53:04.570Z,1.40
2023-03-17T04:55:32.372Z,1.50
2023-03-17T04:58:01.520Z,1.50
2023-03-17T05:00:29.777Z,1.50
2023-03-17T05:02:57.761Z,1.60
2023-03-17T05:05:25.550Z,1.60
2023-03-17T05:07:53.344Z,1.50
2023-03-17T05:10:21.134Z,1.50
2023-03-17T05:12:48.977Z,1.50
2023-03-17T05:15:18.316Z,1.50
2023-03-17T05:17:46.232Z,1.40
2023-03-17T05:20:14.705Z,1.30
2023-03-17T05:22:42.531Z,1.50
2023-03-17T05:25:10.649Z,1.40
2023-03-17T05:27:38.509Z,1.30
2023-03-17T05:30:07.192Z,1.40
2023-03-17T05:32:36.449Z,1.40
2023-03-17T05:35:06.000Z,1.40
2023-03-17T05:37:33.888Z,1.40
2023-03-17T05:40:02.184Z,1.30
2023-03-17T05:42:29.971Z,1.50
2023-03-17T05:44:57.745Z,1.60
2023-03-17T05:47:25.595Z,1.40
2023-03-17T05:49:54.787Z,1.50
2023-03-17T05:52:22.657Z,1.50
2023-03-17T05:54:52.261Z,1.50
2023-03-17T05:57:20.082Z,1.70
2023-03-17T05:59:47.950Z,1.80
2023-03-17T06:02:16.092Z,1.70
2023-03-17T06:04:44.141Z,1.40
2023-03-17T06:07:13.663Z,1.50
2023-03-17T06:09:41.683Z,1.60
2023-03-17T06:12:10.325Z,1.60
2023-03-17T06:14:38.166Z,1.60
2023-03-17T06:17:06.288Z,1.60
2023-03-17T06:19:34.114Z,1.60
2023-03-17T06:22:01.915Z,1.70
2023-03-17T06:24:31.278Z,1.80
2023-03-17T06:26:59.016Z,2.00
2023-03-17T06:29:28.553Z,2.10
2023-03-17T06:31:58.162Z,2.10
2023-03-17T06:34:29.230Z,2.20
2023-03-17T06:36:57.045Z,2.30
2023-03-17T06:39:24.846Z,2.30
2023-03-17T06:41:54.269Z,2.40
2023-03-17T06:44:22.090Z,2.50
2023-03-17T06:46:50.080Z,2.50
2023-03-17T06:49:17.975Z,2.60
2023-03-17T06:51:45.776Z,2.70
2023-03-17T06:54:13.912Z,2.70
2023-03-17T06:56:41.717Z,2.60
2023-03-17T06:59:11.386Z,2.70
2023-03-17T07:01:39.356Z,2.90
2023-03-17T07:04:07.311Z,2.70
2023-03-17T07:06:35.292Z,2.90
2023-03-17T07:09:03.664Z,3.10
2023-03-17T07:11:32.669Z,3.30
2023-03-17T07:14:00.524Z,3.40
2023-03-17T07:16:29.804Z,3.50
2023-03-17T07:18:58.228Z,3.50
2023-03-17T07:21:26.075Z,3.80
2023-03-17T07:23:53.924Z,4.00
2023-03-17T07:26:21.763Z,4.20
2023-03-17T07:28:49.569Z,4.40
2023-03-17T07:31:17.552Z,4.70
2023-03-17T07:33:46.962Z,4.90
2023-03-17T07:36:15.779Z,5.20
2023-03-17T07:38:44.177Z,5.50
2023-03-17T07:41:11.968Z,5.80
2023-03-17T07:43:39.797Z,6.30
2023-03-17T07:46:08.484Z,7.30
2023-03-17T07:48:40.729Z,8.10
2023-03-17T07:51:12.271Z,9.40
2023-03-17T07:53:40.474Z,9.70
2023-03-17T07:56:08.837Z,9.20
2023-03-17T07:58:37.065Z,9.40
2023-03-17T08:01:05.001Z,9.60
2023-03-17T08:03:32.860Z,9.80
2023-03-17T08:06:00.792Z,10.60
2023-03-17T08:08:30.155Z,10.50
2023-03-17T08:10:59.732Z,11.10
2023-03-17T08:13:27.615Z,10.70
2023-03-17T08:15:55.869Z,10.60
2023-03-17T08:18:23.779Z,10.80
2023-03-17T08:20:52.271Z,11.20
2023-03-17T08:23:20.444Z,11.50
2023-03-17T08:25:49.768Z,12.00
2023-03-17T08:28:17.642Z,12.30
2023-03-17T08:30:50.382Z,12.40
2023-03-17T08:33:18.499Z,12.80
2023-03-17T08:35:46.970Z,13.00
2023-03-17T08:38:14.845Z,13.10
2023-03-17T08:40:42.725Z,13.70
2023-03-17T08:43:11.925Z,13.80
2023-03-17T08:45:40.725Z,14.20
2023-03-17T08:48:09.540Z,14.30
2023-03-17T08:50:37.518Z,14.60
2023-03-17T08:53:05.389Z,14.60
2023-03-17T08:55:33.192Z,14.80
2023-03-17T08:58:01.498Z,15.30
2023-03-17T09:00:30.873Z,15.50
2023-03-17T09:02:59.174Z,15.50
2023-03-17T09:05:27.210Z,15.70
2023-03-17T09:07:55.052Z,16.00
2023-03-17T09:10:23.615Z,15.80
2023-03-17T09:12:51.642Z,16.20
2023-03-17T09:15:19.768Z,16.50
2023-03-17T09:17:49.420Z,16.80
2023-03-17T09:20:17.760Z,16.80
2023-03-17T09:22:45.652Z,16.80
2023-03-17T09:25:13.505Z,16.70
2023-03-17T09:27:41.337Z,17.00
2023-03-17T09:30:10.807Z,16.70
2023-03-17T09:32:38.666Z,17.10
2023-03-17T09:35:08.347Z,17.40
2023-03-17T09:37:36.198Z,17.60
2023-03-17T09:40:08.073Z,17.50
2023-03-17T09:42:42.069Z,17.60
2023-03-17T09:45:17.555Z,18.00
2023-03-17T09:48:00.438Z,18.40
2023-03-17T09:50:32.697Z,18.50
2023-03-17T09:53:03.444Z,18.50
2023-03-17T09:55:33.151Z,18.80
2023-03-17T09:58:03.464Z,18.70
2023-03-17T10:00:31.802Z,19.00
2023-03-17T10:02:59.767Z,19.20
2023-03-17T10:05:30.401Z,18.90
2023-03-17T10:08:04.349Z,19.00
2023-03-17T10:10:36.674Z,19.20
2023-03-17T10:13:08.587Z,19.30
2023-03-17T10:15:38.385Z,19.30
2023-03-17T10:18:10.518Z,19.40
2023-03-17T10:20:42.610Z,19.00
2023-03-17T10:23:12.726Z,18.90
2023-03-17T10:25:40.705Z,18.80
2023-03-17T10:28:12.260Z,19.20
2023-03-17T10:30:40.097Z,19.00
2023-03-17T10:33:08.525Z,19.10
2023-03-17T10:35:39.301Z,19.00
2023-03-17T10:38:17.068Z,19.00
2023-03-17T10:40:47.739Z,18.90
2023-03-17T10:43:18.263Z,18.90
2023-03-17T10:45:55.416Z,18.90
2023-03-17T10:48:23.522Z,19.00
2023-03-17T10:50:52.903Z,19.40
2023-03-17T10:53:28.330Z,19.90
2023-03-17T10:55:59.627Z,19.80
2023-03-17T10:58:37.160Z,20.00
2023-03-17T11:01:07.748Z,20.10
2023-03-17T11:03:38.819Z,20.30
2023-03-17T11:06:08.509Z,20.30
2023-03-17T11:08:39.319Z,20.20
2023-03-17T11:11:08.532Z,20.40
2023-03-17T11:13:36.556Z,20.40
2023-03-17T11:16:10.629Z,20.20
2023-03-17T11:18:38.896Z,20.30
2023-03-17T11:21:08.128Z,20.60
2023-03-17T11:23:53.869Z,20.30
2023-03-17T11:26:44.850Z,20.30
2023-03-17T11:29:23.753Z,20.20
2023-03-17T11:31:58.911Z,20.40
2023-03-17T11:34:33.763Z,20.40
2023-03-17T11:37:04.388Z,20.80
2023-03-17T11:39:36.052Z,20.90
2023-03-17T11:42:07.880Z,20.90
2023-03-17T11:45:03.731Z,20.90
2023-03-17T11:47:40.220Z,21.10
2023-03-17T11:50:12.422Z,20.90
2023-03-17T11:52:44.658Z,20.80
2023-03-17T11:55:16.221Z,21.00
2023-03-17T11:57:47.774Z,20.60
2023-03-17T12:00:18.086Z,20.70
2023-03-17T12:02:47.565Z,20.40
2023-03-17T12:05:16.903Z,19.90
2023-03-17T12:07:46.708Z,20.10
2023-03-17T12:10:20.411Z,20.20
2023-03-17T12:12:50.996Z,20.10
2023-03-17T12:15:21.050Z,19.90
2023-03-17T12:17:52.248Z,19.90
2023-03-17T12:20:21.154Z,19.30
2023-03-17T12:22:50.722Z,19.50
2023-03-17T12:25:24.606Z,19.70
2023-03-17T12:27:55.945Z,19.60
2023-03-17T12:30:27.918Z,19.70
2023-03-17T12:33:00.229Z,19.70
2023-03-17T12:35:29.442Z,19.70
2023-03-17T12:37:58.970Z,19.70
2023-03-17T12:40:31.103Z,19.60
2023-03-17T12:43:07.334Z,19.70
2023-03-17T12:45:46.944Z,19.60
2023-03-17T12:48:32.729Z,19.60
2023-03-17T12:51:30.966Z,19.90
2023-03-17T12:54:00.178Z,19.70
2023-03-17T12:56:30.809Z,19.60
2023-03-17T12:59:00.677Z,20.00
2023-03-17T13:01:33.054Z,20.00
2023-03-17T13:04:07.935Z,20.40
2023-03-17T13:06:40.401Z,20.40
2023-03-17T13:09:30.239Z,20.30
2023-03-17T13:12:01.116Z,20.10
2023-03-17T13:14:38.714Z,20.00
2023-03-17T13:17:07.023Z,20.20
2023-03-17T13:19:34.879Z,20.20
2023-03-17T13:22:32.932Z,20.40
2023-03-17T13:25:13.794Z,20.40
2023-03-17T13:27:49.874Z,20.20
2023-03-17T13:30:43.828Z,20.30
2023-03-17T13:33:27.166Z,20.30
2023-03-17T13:36:09.939Z,20.30
2023-03-17T13:39:17.817Z,20.20
2023-03-17T13:42:18.026Z,20.20
2023-03-17T13:45:00.283Z,19.90
2023-03-17T13:47:33.414Z,19.30
2023-03-17T13:50:03.731Z,19.60
2023-03-17T13:52:32.862Z,19.70
2023-03-17T13:55:05.328Z,19.40
2023-03-17T13:57:36.631Z,19.20
2023-03-17T14:00:22.562Z,19.10
2023-03-17T14:02:50.915Z,19.10
2023-03-17T14:05:21.576Z,19.30
2023-03-17T14:07:52.301Z,18.90
2023-03-17T14:10:21.718Z,18.90
2023-03-17T14:12:53.058Z,18.80
2023-03-17T14:15:25.947Z,18.60
2023-03-17T14:17:56.572Z,18.40
2023-03-17T14:20:24.671Z,18.30
2023-03-17T14:22:54.969Z,18.30
2023-03-17T14:25:24.033Z,18.30
2023-03-17T14:27:53.565Z,18.30
2023-03-17T14:30:23.873Z,18.40
2023-03-17T14:33:00.332Z,18.30
2023-03-17T14:35:31.361Z,18.40
2023-03-17T14:37:59.353Z,18.50
2023-03-17T14:40:28.291Z,18.40
2023-03-17T14:42:57.393Z,18.50
2023-03-17T14:45:30.972Z,18.70
2023-03-17T14:47:59.155Z,18.50
2023-03-17T14:50:29.036Z,18.70
2023-03-17T14:52:57.298Z,18.80
2023-03-17T14:55:30.022Z,18.60
2023-03-17T14:57:58.035Z,18.80
2023-03-17T15:00:34.900Z,19.10
2023-03-17T15:03:05.162Z,19.20
2023-03-17T15:05:38.562Z,19.50
2023-03-17T15:08:46.338Z,19.40
2023-03-17T15:11:24.968Z,19.60
2023-03-17T15:13:56.010Z,19.60
2023-03-17T15:16:26.518Z,19.40
2023-03-17T15:19:04.469Z,19.40
2023-03-17T15:21:35.155Z,19.30
2023-03-17T15:24:08.587Z,19.20
2023-03-17T15:26:36.473Z,19.10
2023-03-17T15:29:04.277Z,19.10
2023-03-17T15:31:33.466Z,19.10
2023-03-17T15:34:01.255Z,18.80
2023-03-17T15:36:33.018Z,18.70
2023-03-17T15:39:01.342Z,18.50
2023-03-17T15:41:29.178Z,18.40
2023-03-17T15:43:57.172Z,18.50
2023-03-17T15:46:27.322Z,18.40
2023-03-17T15:48:56.570Z,18.20
2023-03-17T15:51:24.365Z,18.10
2023-03-17T15:53:52.237Z,18.10
2023-03-17T15:56:21.087Z,18.00
2023-03-17T15:58:49.230Z,17.80
2023-03-17T16:01:17.373Z,17.80
2023-03-17T16:03:47.128Z,17.80
2023-03-17T16:06:17.889Z,17.70
2023-03-17T16:08:45.878Z,17.60
2023-03-17T16:11:19.027Z,17.50
2023-03-17T16:13:47.561Z,17.40
2023-03-17T16:16:21.497Z,17.30
2023-03-17T16:18:50.281Z,17.20
2023-03-17T16:21:20.162Z,17.00
2023-03-17T16:23:48.087Z,17.00
2023-03-17T16:26:17.130Z,16.90
2023-03-17T16:28:45.622Z,16.80
2023-03-17T16:31:19.287Z,16.80
2023-03-17T16:33:47.215Z,16.70
2023-03-17T16:36:16.406Z,16.60
2023-03-17T16:38:45.850Z,16.40
2023-03-17T16:41:19.129Z,16.30
2023-03-17T16:43:51.039Z,16.30
2023-03-17T16:46:19.729Z,16.10
2023-03-17T16:48:48.284Z,16.00
2023-03-17T16:51:16.108Z,15.90
2023-03-17T16:53:45.381Z,15.90
2023-03-17T16:56:16.470Z,15.80
2023-03-17T16:58:44.470Z,15.70
2023-03-17T17:01:14.455Z,15.70
2023-03-17T17:03:43.307Z,15.50
2023-03-17T17:06:12.021Z,15.30
2023-03-17T17:08:39.816Z,15.30
2023-03-17T17:11:08.950Z,15.20
2023-03-17T17:13:37.348Z,15.10
2023-03-17T17:16:05.448Z,15.00
2023-03-17T17:18:33.478Z,14.90
2023-03-17T17:21:03.749Z,14.70
2023-03-17T17:23:31.539Z,14.70
2023-03-17T17:25:59.349Z,14.70
2023-03-17T17:28:28.529Z,14.60
2023-03-17T17:30:58.419Z,14.50
2023-03-17T17:33:26.250Z,14.40
2023-03-17T17:35:54.119Z,14.10
2023-03-17T17:38:22.993Z,14.00
2023-03-17T17:40:50.871Z,13.90
2023-03-17T17:43:19.109Z,13.70
2023-03-17T17:45:49.523Z,13.60
2023-03-17T17:48:17.411Z,13.40
2023-03-17T17:50:45.323Z,13.30
2023-03-17T17:53:13.738Z,13.30
2023-03-17T17:55:41.763Z,13.20
2023-03-17T17:58:09.785Z,13.20
2023-03-17T18:00:37.584Z,13.30
2023-03-17T18:03:06.755Z,13.30
2023-03-17T18:05:34.567Z,13.20
2023-03-17T18:08:02.559Z,13.10
2023-03-17T18:10:30.778Z,12.90
2023-03-17T18:12:59.312Z,12.90
2023-03-17T18:15:27.412Z,12.90
2023-03-17T18:17:55.504Z,12.90
2023-03-17T18:20:24.707Z,13.00
2023-03-17T18:22:52.862Z,12.90
2023-03-17T18:25:20.793Z,12.90
2023-03-17T18:27:48.628Z,12.70
2023-03-17T18:30:22.073Z,12.80
2023-03-17T18:32:50.800Z,12.60
2023-03-17T18:35:20.359Z,12.50
2023-03-17T18:37:49.548Z,12.50
2023-03-17T18:40:32.228Z,12.40
2023-03-17T18:43:00.095Z,12.30
2023-03-17T18:45:27.905Z,12.20
2023-03-17T18:47:55.781Z,12.10
2023-03-17T18:50:23.602Z,12.10
2023-03-17T18:52:52.783Z,11.90
2023-03-17T18:55:20.767Z,11.90
2023-03-17T18:57:48.614Z,11.80
2023-03-17T19:00:17.332Z,11.80
2023-03-17T19:02:45.513Z,11.70
2023-03-17T19:05:14.190Z,11.60
2023-03-17T19:07:42.076Z,11.50
2023-03-17T19:10:13.951Z,11.40
2023-03-17T19:12:42.383Z,11.40
2023-03-17T19:15:12.461Z,11.30
2023-03-17T19:17:40.371Z,11.30
2023-03-17T19:20:10.031Z,11.20
2023-03-17T19:22:37.838Z,11.20
2023-03-17T19:25:06.297Z,11.10
2023-03-17T19:27:35.599Z,11.00
2023-03-17T19:30:03.435Z,11.10
2023-03-17T19:32:31.263Z,11.00
2023-03-17T19:34:59.087Z,10.90
2023-03-17T19:37:27.032Z,10.90
2023-03-17T19:39:54.868Z,10.80
2023-03-17T19:42:22.812Z,10.70
2023-03-17T19:44:51.967Z,10.70
2023-03-17T19:47:20.037Z,10.60
2023-03-17T19:49:48.189Z,10.60
2023-03-17T19:52:16.023Z,10.50
2023-03-17T19:54:45.941Z,10.50
2023-03-17T19:57:14.062Z,10.50
2023-03-17T19:59:41.898Z,10.40
2023-03-17T20:02:13.068Z,10.30
2023-03-17T20:04:40.955Z,10.20
2023-03-17T20:07:08.862Z,10.10
2023-03-17T20:09:37.839Z,10.10
2023-03-17T20:12:06.076Z,10.20
2023-03-17T20:14:33.876Z,10.10
2023-03-17T20:17:01.719Z,9.90
2023-03-17T20:19:30.959Z,9.80
2023-03-17T20:21:59.231Z,9.70
2023-03-17T20:24:29.160Z,9.50
2023-03-17T20:26:58.010Z,9.40
2023-03-17T20:29:25.937Z,9.40
2023-03-17T20:31:53.884Z,9.30
2023-03-17T20:34:21.926Z,9.30
2023-03-17T20:36:51.385Z,9.20
2023-03-17T20:39:20.631Z,9.30
2023-03-17T20:41:48.997Z,9.20
2023-03-17T20:44:17.381Z,9.10
2023-03-17T20:46:45.538Z,9.10
2023-03-17T20:49:13.719Z,9.10
2023-03-17T20:51:41.689Z,9.10
2023-03-17T20:54:11.131Z,9.10
2023-03-17T20:56:39.624Z,9.10
2023-03-17T20:59:09.531Z,9.10
2023-03-17T21:01:38.465Z,9.00
2023-03-17T21:04:08.846Z,8.90
2023-03-17T21:06:36.731Z,8.90
2023-03-17T21:09:04.683Z,8.90
2023-03-17T21:11:33.853Z,8.90
2023-03-17T21:14:03.318Z,8.80
2023-03-17T21:16:31.285Z,8.80
2023-03-17T21:18:59.137Z,8.90
2023-03-17T21:21:27.243Z,8.90
2023-03-17T21:23:55.405Z,8.90
2023-03-17T21:26:24.637Z,8.90
2023-03-17T21:28:55.024Z,8.70
2023-03-17T21:31:22.911Z,8.80
2023-03-17T21:33:51.135Z,8.70
2023-03-17T21:36:20.826Z,8.60
2023-03-17T21:38:48.618Z,8.60
2023-03-17T21:41:21.225Z,8.60
2023-03-17T21:43:49.055Z,8.70
2023-03-17T21:46:18.307Z,8.60
2023-03-17T21:48:46.070Z,8.60
2023-03-17T21:51:13.913Z,8.60
2023-03-17T21:53:41.713Z,8.60
2023-03-17T21:56:12.346Z,8.80
2023-03-17T21:58:40.436Z,8.60
2023-03-17T22:01:09.116Z,8.40
2023-03-17T22:03:39.882Z,8.20
2023-03-17T22:06:08.676Z,8.10
2023-03-17T22:08:36.595Z,7.90
2023-03-17T22:11:07.822Z,7.80
2023-03-17T22:13:35.851Z,7.80
2023-03-17T22:16:04.170Z,7.90
2023-03-17T22:18:32.389Z,7.80
2023-03-17T22:21:01.661Z,7.70
2023-03-17T22:23:30.311Z,7.70
2023-03-17T22:25:58.375Z,7.60
2023-03-17T22:28:26.356Z,7.60
2023-03-17T22:30:54.464Z,7.60
2023-03-17T22:33:22.352Z,7.60
2023-03-17T22:35:50.188Z,7.50
2023-03-17T22:38:19.369Z,7.50
2023-03-17T22:40:47.172Z,7.50
2023-03-17T22:43:15.042Z,7.50
2023-03-17T22:45:42.865Z,7.60
2023-03-17T22:48:11.014Z,7.60
2023-03-17T22:50:38.863Z,7.50
2023-03-17T22:53:06.708Z,7.40
2023-03-17T22:55:36.396Z,7.40
2023-03-17T22:58:04.219Z,7.40
2023-03-17T23:00:32.371Z,7.30
2023-03-17T23:03:00.433Z,7.40
2023-03-17T23:05:28.250Z,7.40
2023-03-17T23:07:56.049Z,7.40
2023-03-17T23:10:24.700Z,7.30
2023-03-17T23:12:53.901Z,7.40
2023-03-17T23:15:22.109Z,7.30
2023-03-17T23:17:49.942Z,7.20
2023-03-17T23:20:18.976Z,7.40
2023-03-17T23:22:47.019Z,7.20
2023-03-17T23:25:14.828Z,7.20
2023-03-17T23:27:42.696Z,7.30
2023-03-17T23:30:13.397Z,7.10
2023-03-17T23:32:41.643Z,7.00
2023-03-17T23:35:10.438Z,7.00
2023-03-17T23:37:38.267Z,6.90
2023-03-17T23:40:07.283Z,7.00
2023-03-17T23:42:35.527Z,6.80
2023-03-17T23:45:03.469Z,6.80
2023-03-17T23:47:32.654Z,6.80
2023-03-17T23:50:00.747Z,6.70
2023-03-17T23:52:28.539Z,6.70
2023-03-17T23:54:56.361Z,6.60
2023-03-17T23:57:24.197Z,6.60
2023-03-17T23:59:52.335Z,6.60
